Flight Track Log - Related Links

Times and Time Zones

All times are in EDT time to prevent confusion due to time zone crossing. See the EJM918 flight status page for this flight to view local times or setup timezone preferences in your user account.


Time Position Orientation Groundspeed Altitude Reporting Facility
EDT Latitude Longitude Course Direction KTS MPH feet Rate Location/Type
Mon 09:32:14 AM 48.4810 -1.6370 356° North 377 434 16,400  Level FlightAware ADS-B
Mon 09:32:54 AM 48.5540 -1.6430 357° North 395 455 17,900 1,553 Climbing FlightAware ADS-B
Mon 09:33:39 AM 48.6400 -1.6520 356° North 439 505 18,600 1,888 Climbing FlightAware ADS-B
Mon 09:34:23 AM 48.7310 -1.6741 356° North 382 440 20,700 2,778 Climbing FlightAware UK
Mon 09:34:33 AM 48.7420 -1.6730 356° North 437 503 21,100 2,500 Climbing FlightAware ADS-B
Mon 09:34:59 AM 48.8036 -1.6613 356° North 386 444 22,200 2,341 Climbing FlightAware UK
Mon 09:35:14 AM 48.8330 -1.6560 356° North 452 520 22,700 1,700 Climbing FlightAware ADS-B
Mon 09:35:59 AM 48.9230 -1.6240 13° North 477 549 23,900 1,733 Climbing FlightAware ADS-B
Mon 09:36:44 AM 49.0190 -1.5830 16° North 490 564 25,300 2,047 Climbing FlightAware ADS-B
Mon 09:37:24 AM 49.1110 -1.5370 18° North 497 572 26,800 2,105 Climbing FlightAware ADS-B
Mon 09:37:41 AM 49.1498 -1.5286 18° North 424 488 27,300 1,950 Climbing FlightAware UK
Mon 09:38:04 AM 49.2010 -1.5190 18° North 503 579 28,100 2,151 Climbing FlightAware ADS-B
Mon 09:38:34 AM 49.2580 -1.5220 18° North 486 559 29,200 1,935 Climbing FlightAware ADS-B
Mon 09:38:35 AM 49.2745 -1.5274 18° North 426 490 29,100 522 Descending FlightAware UK
Mon 09:38:57 AM 49.3170 -1.5600 337° Northwest 492 566 29,400 1,256 Climbing FlightAware ADS-B
Mon 09:39:18 AM 49.3480 -1.6040 317° Northwest 472 543 30,000 2,211 Climbing FlightAware ADS-B
Mon 09:39:35 AM 49.3712 -1.6606 317° Northwest 446 513 30,800 2,700 Climbing FlightAware UK
Mon 09:39:58 AM 49.3830 -1.7230 317° Northwest 426 490 31,800 2,455 Climbing FlightAware ADS-B
Mon 09:40:41 AM 49.3954 -1.8549 317° Northwest 438 504 33,500 2,133 Climbing FlightAware UK
Mon 09:40:43 AM 49.3940 -1.8430 317° Northwest 420 483 33,400 2,154 Descending FlightAware ADS-B
Mon 09:41:20 AM 49.4050 -1.9640 278° West 409 471 34,900 1,792 Climbing FlightAware ADS-B
Mon 09:42:00 AM 49.4140 -2.0680 278° West 416 479 35,700 1,364 Climbing FlightAware ADS-B
Mon 09:42:04 AM 49.4175 -2.0973 278° West 434 499 35,900 1,235 Climbing FlightAware UK
Mon 09:42:34 AM 49.4248 -2.1858 278° West 432 497 36,400 878 Climbing FlightAware UK
Mon 09:42:45 AM 49.4270 -2.2130 278° West 428 493 36,500 200 Climbing FlightAware ADS-B
Mon 09:43:04 AM 49.4326 -2.2781 278° West 448 516 36,500 1,459 Level FlightAware UK
Mon 09:43:22 AM 49.4370 -2.3270 278° West 430 495 37,400 2,500 Climbing FlightAware ADS-B
Mon 09:43:40 AM 49.4420 -2.3876 278° West 450 518 38,000 1,826 Climbing FlightAware UK
Mon 09:44:08 AM 49.4480 -2.4610 278° West 422 486 38,800 1,273 Climbing FlightAware ADS-B
Mon 09:44:46 AM 49.4579 -2.5824 278° West 434 499 39,400 913 Climbing FlightAware UK
Mon 09:44:54 AM 49.4600 -2.6040 278° West 426 490 39,500 714 Climbing FlightAware ADS-B
Mon 09:45:28 AM 49.4686 -2.7084 278° West 436 502 39,900 667 Climbing FlightAware UK
Mon 09:45:30 AM 49.4690 -2.7120 278° West 431 496 39,900 143 Level FlightAware ADS-B
Mon 09:46:10 AM 49.4793 -2.8369 278° West 454 522 40,000 136 Climbing FlightAware UK
Mon 09:46:14 AM 49.4800 -2.8420 278° West 446 513 40,000  Level FlightAware ADS-B
Mon 09:46:56 AM 49.4850 -2.9130 276° West 456 525 40,000  Level FlightAware ADS-B
Mon 09:47:42 AM 49.5160 -3.1370 282° West 493 567 40,000  Level FlightAware ADS-B
Mon 09:48:10 AM 49.5458 -3.2218 282° West 492 566 40,000  Level FlightAware UK
Mon 09:48:22 AM 49.5590 -3.2580 282° West 496 571 40,000  Level FlightAware ADS-B
Mon 09:49:02 AM 49.6050 -3.3830 300° West 489 563 40,000  Level FlightAware ADS-B
Mon 09:49:44 AM 49.6500 -3.5070 300° West 488 562 40,000  Level FlightAware ADS-B
Mon 09:49:45 AM 49.6527 -3.5138 300° West 478 550 40,000  Level FlightAware UK
Mon 09:50:15 AM 49.6854 -3.6048 300° West 482 555 40,000  Level FlightAware UK
Mon 09:50:30 AM 49.7010 -3.6470 300° West 492 566 40,000  Level FlightAware ADS-B
Mon 09:50:45 AM 49.7186 -3.6960 300° West 488 562 40,000  Level FlightAware UK
Mon 09:51:10 AM 49.7450 -3.7690 300° West 489 563 40,000 455 Level FlightAware ADS-B
Mon 09:51:51 AM 49.7912 -3.8965 300° West 486 559 40,500 682 Climbing FlightAware UK
Mon 09:51:54 AM 49.7930 -3.9030 300° West 483 556 40,500 800 Level FlightAware ADS-B
Mon 09:52:21 AM 49.8236 -3.9872 300° West 484 557 40,900 900 Climbing FlightAware UK
Mon 09:52:34 AM 49.8370 -4.0240 300° West 479 551 41,100 857 Climbing FlightAware ADS-B
Mon 09:53:03 AM 49.8684 -4.1122 300° West 480 552 41,500 900 Climbing FlightAware UK
Mon 09:53:14 AM 49.8800 -4.1440 300° West 478 550 41,700 800 Climbing FlightAware ADS-B
Mon 09:53:33 AM 49.9001 -4.2023 300° West 472 543 41,900 682 Climbing FlightAware UK
Mon 09:53:58 AM 49.9270 -4.2780 300° West 481 554 42,200 522 Climbing FlightAware ADS-B
Mon 09:54:42 AM 49.9730 -4.4080 299° West 485 558 42,500 434 Climbing FlightAware ADS-B
Mon 09:55:21 AM 50.0160 -4.5290 299° West 470 541 42,800 571 Climbing FlightAware UK
Mon 09:55:24 AM 50.0190 -4.5380 299° West 488 562 42,900 333 Climbing FlightAware ADS-B
Mon 09:55:57 AM 50.0548 -4.6402 299° West 474 545 43,000 143 Climbing FlightAware UK
Mon 09:56:06 AM 50.0650 -4.6690 299° West 496 571 43,000  Level FlightAware ADS-B
Mon 09:56:27 AM 50.0875 -4.7340 299° West 484 557 43,000  Level FlightAware UK
Mon 09:56:46 AM 50.1070 -4.7910 299° West 503 579 43,000  Level FlightAware ADS-B
Mon 09:57:23 AM 50.1490 -4.9110 299° West 500 575 43,000  Level FlightAware ADS-B
Mon 09:57:27 AM 50.1538 -4.9252 299° West 490 564 43,000  Level FlightAware UK
Mon 09:57:57 AM 50.1865 -5.0200 299° West 482 555 43,000  Level FlightAware UK
Mon 09:58:08 AM 50.1970 -5.0490 299° West 494 568 43,000  Level FlightAware ADS-B
Mon 09:58:27 AM 50.2188 -5.1141 299° West 482 555 43,000  Level FlightAware UK
Mon 09:59:05 AM 50.2580 -5.2290 299° West 492 566 43,000  Level FlightAware ADS-B
Mon 09:59:27 AM 50.2832 -5.3017 299° West 486 559 43,000  Level FlightAware UK
Mon 09:59:45 AM 50.3010 -5.3540 299° West 492 566 43,000  Level FlightAware ADS-B
Mon 10:00:15 AM 50.3345 -5.4534 299° West 488 562 43,000  Level FlightAware UK
Mon 10:00:30 AM 50.3490 -5.4970 299° West 488 562 43,000  Level FlightAware ADS-B
Mon 10:00:45 AM 50.3663 -5.5478 299° West 482 555 43,000  Level FlightAware UK
Mon 10:01:11 AM 50.3910 -5.6210 299° West 490 564 43,000  Level FlightAware ADS-B
Mon 10:01:35 AM 50.4180 -5.7000 299° West 489 563 43,000  Level FlightAware ADS-B
Mon 10:01:45 AM 50.4295 -5.7354 299° West 490 564 43,000  Level FlightAware UK
Mon 10:02:15 AM 50.4610 -5.8288 299° West 488 562 43,000  Level FlightAware UK
Mon 10:02:25 AM 50.4690 -5.8520 299° West 485 558 43,000  Level FlightAware ADS-B
Mon 10:02:45 AM 50.4918 -5.9220 299° West 486 559 43,000  Level FlightAware UK
Mon 10:03:05 AM 50.5070 -5.9670 299° West 476 548 43,000  Level FlightAware ADS-B
Mon 10:03:21 AM 50.5279 -6.0317 299° West 482 555 43,000  Level FlightAware UK
Mon 10:03:43 AM 50.5500 -6.0980 299° West 479 551 43,000  Level FlightAware ADS-B
Mon 10:04:21 AM 50.5890 -6.2169 299° West 482 555 43,000  Level FlightAware UK
Mon 10:04:27 AM 50.5950 -6.2360 299° West 483 556 43,000  Level FlightAware ADS-B
Mon 10:04:51 AM 50.6196 -6.3103 299° West 488 562 43,000  Level FlightAware UK
Mon 10:05:10 AM 50.6390 -6.3700 299° West 487 560 43,000  Level FlightAware ADS-B
Mon 10:05:51 AM 50.6811 -6.4997 299° West 492 566 43,000  Level FlightAware UK
Mon 10:05:52 AM 50.6810 -6.5000 299° West 485 558 43,000  Level FlightAware ADS-B
Mon 10:06:21 AM 50.7117 -6.5939 299° West 488 562 43,000  Level FlightAware UK
Mon 10:06:34 AM 50.7250 -6.6330 299° West 478 550 43,000  Level FlightAware ADS-B
Mon 10:06:57 AM 50.7480 -6.7054 299° West 486 559 43,000  Level FlightAware UK
Mon 10:07:14 AM 50.7530 -6.7200 299° West 474 545 43,000  Level FlightAware ADS-B
Mon 10:07:57 AM 50.8064 -6.8892 299° West 478 550 43,000  Level FlightAware UK
Mon 10:07:59 AM 50.8090 -6.8960 299° West 471 542 43,000  Level FlightAware ADS-B
Mon 10:08:27 AM 50.8358 -6.9814 299° West 478 550 43,000  Level FlightAware UK
Mon 10:08:41 AM 50.8500 -7.0250 299° West 477 549 43,000  Level FlightAware ADS-B
Mon 10:08:57 AM 50.8652 -7.0744 299° West 482 555 43,000  Level FlightAware UK
Mon 10:09:21 AM 50.8900 -7.1500 299° West 482 555 43,000  Level FlightAware ADS-B
Mon 10:10:02 AM 50.9310 -7.2825 299° West 490 564 43,000  Level FlightAware UK
Mon 10:10:04 AM 50.9330 -7.2860 299° West 485 558 43,000  Level FlightAware ADS-B
Mon 10:10:32 AM 50.9608 -7.3778 299° West 484 557 43,000  Level FlightAware UK
Mon 10:10:46 AM 50.9740 -7.4200 299° West 482 555 43,000  Level FlightAware ADS-B
Mon 10:11:02 AM 50.9905 -7.4728 299° West 482 555 43,000  Level FlightAware UK
Mon 10:11:38 AM 51.0260 -7.5867 296° West 484 557 43,000  Level FlightAware UK
Mon 10:12:08 AM 51.0557 -7.6820 296° West 486 559 43,000  Level FlightAware UK
Mon 10:12:11 AM 51.0460 -7.6470 296° West 486 559 43,000  Level FlightAware ADS-B
Mon 10:12:38 AM 51.0852 -7.7782 296° West 488 562 43,000  Level FlightAware UK
Mon 10:12:54 AM 51.1010 -7.8260 296° West 487 560 43,000  Level FlightAware ADS-B
Mon 10:13:36 AM 51.1420 -7.9620 296° West 482 555 43,000  Level FlightAware ADS-B
Mon 10:14:08 AM 51.1737 -8.0661 296° West 484 557 43,000  Level FlightAware UK
Mon 10:14:16 AM 51.1810 -8.0880 296° West 480 552 43,000  Level FlightAware ADS-B
Mon 10:14:38 AM 51.2027 -8.1610 296° West 482 555 43,000  Level FlightAware UK
Mon 10:14:58 AM 51.2160 -8.2060 296° West 481 554 43,000  Level FlightAware ADS-B
Mon 10:15:14 AM 51.2369 -8.2747 296° West 484 557 43,000  Level FlightAware UK
Mon 10:15:43 AM 51.2640 -8.3650 296° West 482 555 43,000  Level FlightAware ADS-B
Mon 10:16:14 AM 51.2943 -8.4667 296° West 486 559 43,000  Level FlightAware UK
Mon 10:16:28 AM 51.3050 -8.5010 296° West 477 549 43,000  Level FlightAware ADS-B
Mon 10:16:44 AM 51.3234 -8.5624 296° West 482 555 43,000  Level FlightAware UK
Mon 10:17:06 AM 51.3420 -8.6240 296° West 478 550 43,000  Level FlightAware ADS-B
Mon 10:18:04 AM 51.3970 -8.8100 295° West 482 555 43,000  Level FlightAware ADS-B
Mon 10:18:49 AM 51.4410 -8.9600 295° West 475 547 43,000  Level FlightAware ADS-B
Mon 10:19:39 AM 51.4850 -9.1100 295° West 473 544 43,000  Level FlightAware ADS-B
Mon 10:20:22 AM 51.5290 -9.2600 295° West 474 545 43,000  Level FlightAware ADS-B
Mon 10:21:08 AM 51.5700 -9.4020 295° West 470 541 43,000  Level FlightAware ADS-B
Mon 10:21:52 AM 51.6100 -9.5430 295° West 467 537 43,000  Level FlightAware ADS-B
Mon 10:22:33 AM 51.6420 -9.6520 295° West 473 544 43,000  Level FlightAware ADS-B
Mon 10:23:12 AM 51.6850 -9.8030 295° West 474 545 43,000  Level FlightAware ADS-B
Mon 10:23:42 AM 51.7110 -9.8980 294° West 473 544 43,000  Level FlightAware ADS-B
Mon 10:24:27 AM 51.7510 -10.0390 295° West 471 542 43,000  Level FlightAware ADS-B
Mon 10:25:07 AM 51.7860 -10.1650 294° West 473 544 43,000  Level FlightAware ADS-B
Mon 10:25:47 AM 51.8220 -10.2940 294° West 475 547 43,000  Level FlightAware ADS-B
Mon 10:26:47 AM 51.8770 -10.4910 294° West 464 534 43,000  Level FlightAware ADS-B
Mon 10:27:39 AM 51.9180 -10.6440 294° West 460 529 43,000  Level FlightAware ADS-B
Mon 10:28:19 AM 51.9540 -10.7770 294° West 462 532 43,000  Level FlightAware ADS-B
Mon 10:29:04 AM 51.9920 -10.9170 294° West 464 534 43,000  Level FlightAware ADS-B
Mon 10:29:44 AM 52.0280 -11.0490 294° West 465 535 43,000  Level FlightAware ADS-B
Mon 10:30:26 AM 52.0620 -11.1750 294° West 467 537 43,000  Level FlightAware ADS-B
Mon 10:31:11 AM 52.1040 -11.3330 293° West 464 534 43,000  Level FlightAware ADS-B
Mon 10:31:51 AM 52.1370 -11.4590 293° West 460 529 43,000  Level FlightAware ADS-B
Mon 10:32:47 AM 52.1840 -11.6380 293° West 458 527 43,000  Level FlightAware ADS-B
Mon 10:33:44 AM 52.2260 -11.7970 293° West 460 529 43,000  Level FlightAware ADS-B
Mon 10:34:29 AM 52.2640 -11.9470 293° West 464 534 43,000  Level FlightAware ADS-B
Mon 10:35:31 AM 52.3170 -12.1520 293° West 464 534 43,000  Level FlightAware ADS-B
Mon 10:36:19 AM 52.3590 -12.3180 293° West 466 536 43,000  Level FlightAware ADS-B
Mon 10:36:59 AM 52.3920 -12.4480 293° West 463 533 43,000  Level FlightAware ADS-B
Mon 10:37:41 AM 52.4270 -12.5850 293° West 459 528 43,000  Level FlightAware ADS-B
Mon 10:38:25 AM 52.4590 -12.7140 292° West 457 526 43,000  Level FlightAware ADS-B
Mon 10:39:06 AM 52.4940 -12.8550 292° West 458 527 43,000  Level FlightAware ADS-B
Mon 10:39:51 AM 52.5310 -13.0060 292° West 456 525 43,000  Level FlightAware ADS-B
Mon 10:40:31 AM 52.5620 -13.1320 292° West 454 522 43,000  Level FlightAware ADS-B
Mon 10:41:29 AM 52.6060 -13.3100 292° West 455 524 43,000  Level FlightAware ADS-B
Mon 10:42:06 AM 52.6290 -13.4120 290° West 455 524 43,000  Level FlightAware ADS-B
Mon 10:42:52 AM 52.6590 -13.5380 291° West 455 524 43,000  Level FlightAware ADS-B
Mon 10:43:29 AM 52.6820 -13.6400 290° West 455 524 43,000  Level FlightAware ADS-B
Mon 10:44:10 AM 52.7270 -13.8200 292° West 462 532 43,000  Level FlightAware ADS-B
Mon 10:45:14 AM 52.7660 -14.0010 290° West 462 532 43,000  Level FlightAware ADS-B
Mon 10:45:51 AM 52.7890 -14.1050 290° West 462 532 43,000  Level FlightAware ADS-B
Mon 10:47:04 AM 52.8350 -14.3110 290° West 462 532 43,000  Level FlightAware ADS-B
Mon 10:47:45 AM 52.8600 -14.4270 290° West 462 532 43,000  Level FlightAware ADS-B
Mon 10:48:24 AM 52.8840 -14.5370 290° West 462 532 43,000  Level FlightAware ADS-B
Mon 10:49:10 AM 52.9130 -14.6680 290° West 462 532 43,000  Level FlightAware ADS-B
Mon 10:49:48 AM 52.9360 -14.7750 290° West 462 532 43,000  Level FlightAware ADS-B
Mon 10:50:37 AM 52.9670 -14.9140 290° West 462 532 43,000  Level FlightAware ADS-B
Mon 10:51:11 AM 52.9880 -15.0100 290° West 462 532 43,000  Level FlightAware ADS-B
Mon 10:51:59 AM 53.0180 -15.1470 290° West 462 532 43,000  Level FlightAware ADS-B
Mon 10:52:38 AM 53.0420 -15.2570 290° West 462 532 43,000  Level FlightAware ADS-B
Mon 10:53:15 AM 53.0650 -15.3630 290° West 462 532 43,000  Level FlightAware ADS-B
Mon 10:55:00 AM 53.0892 -15.6990 277° West  Level Estimated
Mon 10:56:00 AM 53.1026 -15.8911 277° West  Level Estimated
Mon 10:57:00 AM 53.1157 -16.0834 277° West  Level Estimated
Mon 10:58:00 AM 53.1285 -16.2758 276° West  Level Estimated
Mon 10:59:00 AM 53.1410 -16.4683 276° West  Level Estimated
Mon 11:00:00 AM 53.1532 -16.6609 276° West  Level Estimated
Mon 11:01:00 AM 53.1650 -16.8536 276° West  Level Estimated
Mon 11:02:00 AM 53.1766 -17.0465 276° West  Level Estimated
Mon 11:03:00 AM 53.1878 -17.2394 276° West  Level Estimated
Mon 11:04:00 AM 53.1987 -17.4324 275° West  Level Estimated
Mon 11:05:00 AM 53.2093 -17.6255 275° West  Level Estimated
Mon 11:06:00 AM 53.2196 -17.8188 275° West  Level Estimated
Mon 11:07:00 AM 53.2296 -18.0121 275° West  Level Estimated
Mon 11:08:00 AM 53.2393 -18.2055 275° West  Level Estimated
Mon 11:09:00 AM 53.2486 -18.3990 275° West  Level Estimated
Mon 11:10:00 AM 53.2577 -18.5925 275° West  Level Estimated
Mon 11:11:00 AM 53.2664 -18.7862 274° West  Level Estimated
Mon 11:12:00 AM 53.2748 -18.9799 274° West  Level Estimated
Mon 11:13:00 AM 53.2829 -19.1737 274° West  Level Estimated
Mon 11:14:00 AM 53.2907 -19.3676 274° West  Level Estimated
Mon 11:15:00 AM 53.2982 -19.5615 274° West  Level Estimated
Mon 11:16:00 AM 53.3053 -19.7555 274° West  Level Estimated
Mon 11:16:00 AM 54.0000 -20.0000 284° West 450 518 43,000  Level ETMS Enhanced Traffic Management System
Mon 11:17:00 AM 53.3122 -19.9496 273° West  Level Estimated
Mon 11:18:00 AM 53.3187 -20.1437 273° West  Level Estimated
Mon 11:19:00 AM 53.3249 -20.3379 273° West  Level Estimated
Mon 11:20:00 AM 53.3308 -20.5322 273° West  Level Estimated
Mon 11:21:00 AM 53.3364 -20.7265 273° West  Level Estimated
Mon 11:22:00 AM 54.2007 -21.4557 283° West 450 518 43,000  Level FlightAware Transoceanic
Mon 11:23:00 AM 54.2279 -21.6647 282° West 450 518 43,000  Level FlightAware Transoceanic
Mon 11:24:00 AM 54.2548 -21.8741 282° West 450 518 43,000  Level FlightAware Transoceanic
Mon 11:25:00 AM 54.2813 -22.0837 282° West 450 518 43,000  Level FlightAware Transoceanic
Mon 11:26:00 AM 54.3074 -22.2936 282° West 450 518 43,000  Level FlightAware Transoceanic
Mon 11:27:00 AM 54.3332 -22.5038 282° West 450 518 43,000  Level FlightAware Transoceanic
Mon 11:28:00 AM 54.3586 -22.7142 282° West 450 518 43,000  Level FlightAware Transoceanic
Mon 11:29:00 AM 54.3837 -22.9249 281° West 450 518 43,000  Level FlightAware Transoceanic
Mon 11:30:00 AM 54.4084 -23.1359 281° West 450 518 43,000  Level FlightAware Transoceanic
Mon 11:31:00 AM 54.4327 -23.3470 281° West 450 518 43,000  Level FlightAware Transoceanic
Mon 11:32:00 AM 54.4566 -23.5585 281° West 450 518 43,000  Level FlightAware Transoceanic
Mon 11:33:00 AM 54.4802 -23.7702 281° West 450 518 43,000  Level FlightAware Transoceanic
Mon 11:34:00 AM 54.5034 -23.9821 281° West 450 518 43,000  Level FlightAware Transoceanic
Mon 11:35:00 AM 54.5262 -24.1943 280° West 450 518 43,000  Level FlightAware Transoceanic
Mon 11:36:00 AM 54.5487 -24.4067 280° West 450 518 43,000  Level FlightAware Transoceanic
Mon 11:37:00 AM 54.5708 -24.6193 280° West 450 518 43,000  Level FlightAware Transoceanic
Mon 11:38:00 AM 54.5925 -24.8322 280° West 450 518 43,000  Level FlightAware Transoceanic
Mon 11:39:00 AM 54.6138 -25.0452 280° West 450 518 43,000  Level FlightAware Transoceanic
Mon 11:40:00 AM 54.6348 -25.2586 280° West 450 518 43,000  Level FlightAware Transoceanic
Mon 11:41:00 AM 54.6554 -25.4721 279° West 450 518 43,000  Level FlightAware Transoceanic
Mon 11:42:00 AM 54.6756 -25.6858 279° West 450 518 43,000  Level FlightAware Transoceanic
Mon 11:43:00 AM 54.6954 -25.8998 279° West 450 518 43,000  Level FlightAware Transoceanic
Mon 11:44:00 AM 54.7149 -26.1139 279° West 450 518 43,000  Level FlightAware Transoceanic
Mon 11:45:00 AM 54.7340 -26.3283 279° West 450 518 43,000  Level FlightAware Transoceanic
Mon 11:46:00 AM 54.7527 -26.5429 279° West 450 518 43,000  Level FlightAware Transoceanic
Mon 11:47:00 AM 54.7710 -26.7576 278° West 450 518 43,000  Level FlightAware Transoceanic
Mon 11:48:00 AM 54.7889 -26.9726 278° West 450 518 43,000  Level FlightAware Transoceanic
Mon 11:49:00 AM 54.8065 -27.1877 278° West 450 518 43,000  Level FlightAware Transoceanic
Mon 11:50:00 AM 54.8237 -27.4030 278° West 450 518 43,000  Level FlightAware Transoceanic
Mon 11:51:00 AM 54.8405 -27.6185 278° West 450 518 43,000  Level FlightAware Transoceanic
Mon 11:52:00 AM 54.8569 -27.8342 277° West 450 518 43,000  Level FlightAware Transoceanic
Mon 11:53:00 AM 54.8730 -28.0501 277° West 450 518 43,000  Level FlightAware Transoceanic
Mon 11:54:00 AM 54.8886 -28.2661 277° West 450 518 43,000  Level FlightAware Transoceanic
Mon 11:55:00 AM 54.9039 -28.4823 277° West 450 518 43,000  Level FlightAware Transoceanic
Mon 11:56:00 AM 54.9188 -28.6987 277° West 450 518 43,000  Level FlightAware Transoceanic
Mon 11:57:00 AM 54.9333 -28.9152 277° West 450 518 43,000  Level FlightAware Transoceanic
Mon 11:58:00 AM 54.9474 -29.1319 276° West 450 518 43,000  Level FlightAware Transoceanic
Mon 11:59:00 AM 54.9611 -29.3487 276° West 450 518 43,000  Level FlightAware Transoceanic
Mon 12:00:00 PM 54.9745 -29.5657 276° West 450 518 43,000  Level FlightAware Transoceanic
Mon 12:01:00 PM 54.9874 -29.7827 276° West 450 518 43,000  Level FlightAware Transoceanic
Mon 12:02:00 PM 54.9723 -29.9834 263° West  Level Estimated
Mon 12:03:00 PM 54.9569 -30.1840 262° West  Level Estimated
Mon 12:04:00 PM 54.9411 -30.3844 262° West  Level Estimated
Mon 12:05:00 PM 54.9250 -30.5846 262° West  Level Estimated
Mon 12:06:00 PM 54.9086 -30.7847 262° West  Level Estimated
Mon 12:07:00 PM 54.8919 -30.9846 262° West  Level Estimated
Mon 12:08:00 PM 54.8748 -31.1843 262° West  Level Estimated
Mon 12:09:00 PM 54.8574 -31.3839 261° West  Level Estimated
Mon 12:10:00 PM 54.8396 -31.5833 261° West  Level Estimated
Mon 12:11:00 PM 54.8216 -31.7825 261° West  Level Estimated
Mon 12:12:00 PM 54.8032 -31.9816 261° West  Level Estimated
Mon 12:13:00 PM 54.7845 -32.1804 261° West  Level Estimated
Mon 12:14:00 PM 54.7654 -32.3791 261° West  Level Estimated
Mon 12:15:00 PM 54.7461 -32.5776 260° West  Level Estimated
Mon 12:16:00 PM 54.7264 -32.7759 260° West  Level Estimated
Mon 12:17:00 PM 54.7064 -32.9740 260° West  Level Estimated
Mon 12:18:00 PM 54.6861 -33.1719 260° West  Level Estimated
Mon 12:19:00 PM 54.6654 -33.3696 260° West  Level Estimated
Mon 12:20:00 PM 54.6444 -33.5671 260° West  Level Estimated
Mon 12:21:00 PM 54.6231 -33.7644 260° West  Level Estimated
Mon 12:22:00 PM 54.6015 -33.9614 259° West  Level Estimated
Mon 12:23:00 PM 54.5796 -34.1583 259° West  Level Estimated
Mon 12:24:00 PM 54.5574 -34.3550 259° West  Level Estimated
Mon 12:25:00 PM 54.5348 -34.5514 259° West  Level Estimated
Mon 12:26:00 PM 54.5119 -34.7476 259° West  Level Estimated
Mon 12:27:00 PM 54.4887 -34.9436 259° West  Level Estimated
Mon 12:28:00 PM 54.4652 -35.1394 258° West  Level Estimated
Mon 12:29:00 PM 54.4413 -35.3350 258° West  Level Estimated
Mon 12:30:00 PM 54.4172 -35.5303 258° West  Level Estimated
Mon 12:31:00 PM 54.3927 -35.7254 258° West  Level Estimated
Mon 12:32:00 PM 54.3679 -35.9202 258° West  Level Estimated
Mon 12:33:00 PM 54.3428 -36.1148 258° West  Level Estimated
Mon 12:34:00 PM 54.3174 -36.3092 257° West  Level Estimated
Mon 12:35:00 PM 54.2917 -36.5034 257° West  Level Estimated
Mon 12:36:00 PM 54.2657 -36.6973 257° West  Level Estimated
Mon 12:37:00 PM 54.2393 -36.8909 257° West  Level Estimated
Mon 12:38:00 PM 54.2127 -37.0843 257° West  Level Estimated
Mon 12:39:00 PM 54.1857 -37.2775 257° West  Level Estimated
Mon 12:40:00 PM 54.1584 -37.4704 256° West  Level Estimated
Mon 12:41:00 PM 54.1309 -37.6630 256° West  Level Estimated
Mon 12:42:00 PM 54.1030 -37.8554 256° West  Level Estimated
Mon 12:43:00 PM 54.0748 -38.0475 256° West  Level Estimated
Mon 12:44:00 PM 54.0463 -38.2394 256° West  Level Estimated
Mon 12:45:00 PM 54.0175 -38.4310 256° West  Level Estimated
Mon 12:46:00 PM 53.9884 -38.6223 256° West  Level Estimated
Mon 12:47:00 PM 53.9590 -38.8134 255° West  Level Estimated
Mon 12:48:00 PM 53.9292 -39.0042 255° West  Level Estimated
Mon 12:49:00 PM 53.8992 -39.1947 255° West  Level Estimated
Mon 12:50:00 PM 53.8689 -39.3849 255° West  Level Estimated
Mon 12:51:00 PM 53.8383 -39.5749 255° West  Level Estimated
Mon 12:52:00 PM 53.8074 -39.7646 255° West  Level Estimated
Mon 12:53:00 PM 53.7761 -39.9540 254° West  Level Estimated
Mon 12:54:00 PM 53.7446 -40.1431 254° West  Level Estimated
Mon 12:55:00 PM 53.7128 -40.3320 254° West  Level Estimated
Mon 12:56:00 PM 53.6807 -40.5205 254° West  Level Estimated
Mon 12:57:00 PM 53.6483 -40.7088 254° West  Level Estimated
Mon 12:58:00 PM 53.6156 -40.8968 254° West  Level Estimated
Mon 12:59:00 PM 53.5826 -41.0845 254° West  Level Estimated
Mon 01:00:00 PM 53.5493 -41.2719 253° West  Level Estimated
Mon 01:01:00 PM 53.5157 -41.4589 253° West  Level Estimated
Mon 01:02:00 PM 53.4819 -41.6457 253° West  Level Estimated
Mon 01:03:00 PM 53.4477 -41.8322 253° West  Level Estimated
Mon 01:04:00 PM 53.4132 -42.0184 253° West  Level Estimated
Mon 01:05:00 PM 53.3785 -42.2043 253° West  Level Estimated
Mon 01:06:00 PM 53.3435 -42.3899 253° West  Level Estimated
Mon 01:07:00 PM 53.3082 -42.5752 252° West  Level Estimated
Mon 01:08:00 PM 53.2726 -42.7602 252° West  Level Estimated
Mon 01:09:00 PM 53.2367 -42.9448 252° West  Level Estimated
Mon 01:10:00 PM 53.2005 -43.1292 252° West  Level Estimated
Mon 01:11:00 PM 53.1640 -43.3132 252° West  Level Estimated
Mon 01:12:00 PM 53.1273 -43.4970 252° West  Level Estimated
Mon 01:13:00 PM 53.0903 -43.6804 251° West  Level Estimated
Mon 01:14:00 PM 53.0530 -43.8635 251° West  Level Estimated
Mon 01:15:00 PM 53.0154 -44.0463 251° West  Level Estimated
Mon 01:16:00 PM 52.9775 -44.2287 251° West  Level Estimated
Mon 01:17:00 PM 52.9394 -44.4109 251° West  Level Estimated
Mon 01:18:00 PM 52.9010 -44.5927 251° West  Level Estimated
Mon 01:19:00 PM 52.8623 -44.7742 251° West  Level Estimated
Mon 01:20:00 PM 52.8233 -44.9553 250° West  Level Estimated
Mon 01:21:00 PM 52.7840 -45.1362 250° West  Level Estimated
Mon 01:22:00 PM 52.7445 -45.3167 250° West  Level Estimated
Mon 01:23:00 PM 52.7047 -45.4969 250° West  Level Estimated
Mon 01:24:00 PM 52.6646 -45.6768 250° West  Level Estimated
Mon 01:25:00 PM 52.6243 -45.8563 250° West  Level Estimated
Mon 01:26:00 PM 52.5837 -46.0355 250° West  Level Estimated
Mon 01:27:00 PM 52.5428 -46.2143 249° West  Level Estimated
Mon 01:28:00 PM 52.5017 -46.3929 249° West  Level Estimated
Mon 01:29:00 PM 52.4603 -46.5711 249° West  Level Estimated
Mon 01:30:00 PM 52.4186 -46.7489 249° West  Level Estimated
Mon 01:31:00 PM 52.3766 -46.9264 249° West  Level Estimated
Mon 01:32:00 PM 52.3344 -47.1036 249° West  Level Estimated
Mon 01:33:00 PM 52.2919 -47.2805 249° West  Level Estimated
Mon 01:34:00 PM 52.2492 -47.4570 248° West  Level Estimated
Mon 01:35:00 PM 52.2062 -47.6331 248° West  Level Estimated
Mon 01:36:00 PM 52.1629 -47.8089 248° West  Level Estimated
Mon 01:37:00 PM 52.1194 -47.9844 248° West  Level Estimated
Mon 01:38:00 PM 52.0756 -48.1596 248° West  Level Estimated
Mon 01:39:00 PM 52.0315 -48.3344 248° West  Level Estimated
Mon 01:40:00 PM 51.9872 -48.5088 248° West  Level Estimated
Mon 01:41:00 PM 51.9426 -48.6829 248° West  Level Estimated
Mon 01:42:00 PM 51.8978 -48.8567 247° West  Level Estimated
Mon 01:43:00 PM 51.8527 -49.0301 247° West  Level Estimated
Mon 01:44:00 PM 51.8074 -49.2031 247° West  Level Estimated
Mon 01:45:00 PM 51.7618 -49.3758 247° West  Level Estimated
Mon 01:46:00 PM 51.7160 -49.5482 247° West  Level Estimated
Mon 01:47:00 PM 51.6699 -49.7202 247° West  Level Estimated
Mon 01:48:00 PM 51.6235 -49.8919 247° West  Level Estimated
Mon 01:49:00 PM 51.5770 -50.0632 246° West  Level Estimated
Mon 01:50:00 PM 51.5301 -50.2341 246° West  Level Estimated
Mon 01:51:00 PM 51.4830 -50.4047 246° West  Level Estimated
Mon 01:52:00 PM 51.4357 -50.5750 246° West  Level Estimated
Mon 01:53:00 PM 51.3881 -50.7449 246° West  Level Estimated
Mon 01:54:00 PM 51.3403 -50.9144 246° West  Level Estimated
Mon 01:54:05 PM 55.0333 -54.2000 245° Southwest 450 518 43,000  Level Moncton Center
Mon 01:54:21 PM 55.0167 -54.2833 251° West 450 518 43,000  Level Gander Center
Mon 01:55:00 PM 51.2922 -51.0836 246° West  Level Estimated
Mon 01:55:21 PM 54.9667 -54.4667 245° Southwest 450 518 43,000  Level Gander Center
Mon 01:56:00 PM 51.2439 -51.2524 245° Southwest  Level Estimated
Mon 01:56:21 PM 54.9333 -54.6833 255° West 450 518 43,000  Level Gander Center
Mon 01:57:00 PM 51.1953 -51.4209 245° Southwest  Level Estimated
Mon 01:57:21 PM 54.8667 -54.8667 238° Southwest 450 518 43,000  Level Gander Center
Mon 01:58:00 PM 51.1465 -51.5891 245° Southwest  Level Estimated
Mon 01:59:00 PM 51.0975 -51.7568 245° Southwest  Level Estimated
Mon 01:59:05 PM 54.7333 -55.1833 234° Southwest 450 518 43,000  Level Moncton Center
Mon 01:59:21 PM 54.7167 -55.2333 240° Southwest 450 518 43,000  Level Gander Center
Mon 02:00:21 PM 54.6500 -55.3833 233° Southwest 450 518 43,000  Level Gander Center
Mon 02:00:41 PM 54.6167 -55.4500 229° Southwest 450 518 43,000  Level Gander Center
Mon 02:01:41 PM 54.5333 -55.6333 232° Southwest 450 518 43,000  Level Gander Center
Mon 02:02:41 PM 54.4667 -55.7833 233° Southwest 450 518 43,000  Level Gander Center
Mon 02:03:21 PM 54.4000 -55.9167 229° Southwest 450 518 43,000  Level Gander Center
Mon 02:04:21 PM 54.3167 -56.0667 226° Southwest 450 518 43,000  Level Gander Center
Mon 02:05:05 PM 54.2667 -56.1833 234° Southwest 450 518 43,000  Level Moncton Center
Mon 02:06:05 PM 54.1833 -56.3333 227° Southwest 450 518 43,000  Level Moncton Center
Mon 02:06:41 PM 54.1333 -56.4333 230° Southwest 450 518 43,000  Level Gander Center
Mon 02:07:21 PM 54.0833 -56.5500 234° Southwest 450 518 43,000  Level Gander Center
Mon 02:08:21 PM 54.0000 -56.7333 232° Southwest 450 518 43,000  Level Gander Center
Mon 02:08:41 PM 53.9833 -56.7667 230° Southwest 450 518 43,000  Level Gander Center
Mon 02:09:41 PM 53.8833 -56.9333 225° Southwest 450 518 43,000  Level Gander Center
Mon 02:10:21 PM 53.8333 -57.0333 230° Southwest 450 518 43,000  Level Gander Center
Mon 02:11:21 PM 53.7667 -57.2167 238° Southwest 450 518 43,000  Level Gander Center
Mon 02:12:21 PM 53.6833 -57.3500 223° Southwest 450 518 43,000  Level Gander Center
Mon 02:12:41 PM 53.6500 -57.4167 230° Southwest 450 518 43,000  Level Gander Center
Mon 02:13:21 PM 53.5833 -57.5000 217° Southwest 450 518 43,000  Level Gander Center
Mon 02:14:21 PM 53.5167 -57.6833 239° Southwest 450 518 43,000  Level Gander Center
Mon 02:14:41 PM 53.4833 -57.7167 211° Southwest 450 518 43,000  Level Gander Center
Mon 02:15:41 PM 53.4000 -57.8833 230° Southwest 450 518 43,000  Level Gander Center
Mon 02:16:41 PM 53.3167 -58.0333 227° Southwest 450 518 43,000  Level Gander Center
Mon 02:17:41 PM 53.2333 -58.2167 233° Southwest 450 518 43,000  Level Gander Center
Mon 02:18:41 PM 53.1667 -58.3500 230° Southwest 440 506 43,000  Level Gander Center
Mon 02:19:05 PM 53.1333 -58.4000 222° Southwest 440 506 43,000  Level Moncton Center
Mon 02:19:41 PM 53.0667 -58.5000 222° Southwest 440 506 43,000  Level Gander Center
Mon 02:20:41 PM 52.9833 -58.6500 227° Southwest 440 506 43,000  Level Gander Center
Mon 02:21:41 PM 52.9000 -58.8167 230° Southwest 440 506 43,000  Level Gander Center
Mon 02:22:21 PM 52.8500 -58.9000 225° Southwest 440 506 43,000  Level Gander Center
Mon 02:23:21 PM 52.7667 -59.0500 227° Southwest 440 506 43,000  Level Gander Center
Mon 02:24:21 PM 52.6833 -59.2167 231° Southwest 440 506 43,000  Level Gander Center
Mon 02:25:21 PM 52.6000 -59.3500 224° Southwest 440 506 43,000  Level Gander Center
Mon 02:26:21 PM 52.5167 -59.5000 228° Southwest 450 518 43,000  Level Gander Center
Mon 02:27:21 PM 52.4333 -59.6667 231° Southwest 450 518 43,000  Level Gander Center
Mon 02:28:21 PM 52.3500 -59.8000 224° Southwest 440 506 43,000  Level Gander Center
Mon 02:29:21 PM 52.2667 -59.9500 228° Southwest 440 506 43,000  Level Gander Center
Mon 02:30:21 PM 52.1833 -60.0833 224° Southwest 440 506 43,000  Level Gander Center
Mon 02:30:41 PM 52.1500 -60.1333 223° Southwest 440 506 43,000  Level Gander Center
Mon 02:31:21 PM 52.1000 -60.2500 235° Southwest 440 506 43,000  Level Gander Center
Mon 02:32:21 PM 52.0000 -60.3833 219° Southwest 440 506 43,000  Level Gander Center
Mon 02:33:21 PM 51.9333 -60.5167 231° Southwest 440 506 43,000  Level Gander Center
Mon 02:34:05 PM 51.8667 -60.6333 227° Southwest 440 506 43,000  Level Moncton Center
Mon 02:35:05 PM 51.7833 -60.7667 225° Southwest 440 506 43,000  Level Moncton Center
Mon 02:36:05 PM 51.7000 -60.9167 228° Southwest 440 506 43,000  Level Moncton Center
Mon 02:36:21 PM 51.6667 -60.9667 223° Southwest 440 506 43,000  Level Gander Center
Mon 02:37:21 PM 51.5833 -61.1000 225° Southwest 440 506 43,000  Level Gander Center
Mon 02:38:21 PM 51.5000 -61.2333 225° Southwest 440 506 43,000  Level Gander Center
Mon 02:39:21 PM 51.4167 -61.3833 228° Southwest 440 506 43,000  Level Gander Center
Mon 02:40:05 PM 51.3667 -61.4833 231° Southwest 440 506 43,000  Level Moncton Center
Mon 02:41:05 PM 51.2667 -61.6500 226° Southwest 440 506 43,000  Level Moncton Center
Mon 02:41:21 PM 51.2333 -61.6500 180° South 440 506 43,000  Level Gander Center
Mon 02:42:21 PM 51.1667 -61.8167 238° Southwest 440 506 43,000  Level Gander Center
Mon 02:43:21 PM 51.0667 -61.9500 220° Southwest 440 506 43,000  Level Gander Center
Mon 02:44:21 PM 50.9833 -62.0833 225° Southwest 440 506 43,000  Level Gander Center
Mon 02:45:21 PM 50.9000 -62.2167 225° Southwest 440 506 43,000  Level Gander Center
Mon 02:46:21 PM 50.8167 -62.3667 229° Southwest 440 506 43,000  Level Gander Center
Mon 02:47:05 PM 50.7500 -62.4667 224° Southwest 430 495 43,000  Level Moncton Center
Mon 02:47:21 PM 50.7333 -62.5000 232° Southwest 440 506 43,000  Level Gander Center
Mon 02:48:21 PM 50.6500 -62.6333 225° Southwest 440 506 43,000  Level Gander Center
Mon 02:49:21 PM 50.5667 -62.7500 222° Southwest 440 506 43,000  Level Gander Center
Mon 02:50:21 PM 50.4833 -62.9167 232° Southwest 440 506 43,000  Level Gander Center
Mon 02:51:21 PM 50.3833 -63.0333 217° Southwest 440 506 43,000  Level Gander Center
Mon 02:52:21 PM 50.3000 -63.1667 226° Southwest 440 506 43,000  Level Gander Center
Mon 02:53:21 PM 50.2000 -63.3167 224° Southwest 440 506 43,000  Level Gander Center
Mon 02:54:21 PM 50.1167 -63.4500 226° Southwest 440 506 43,000  Level Gander Center
Mon 02:55:05 PM 50.0500 -63.5333 219° Southwest 440 506 43,000  Level Moncton Center
Mon 02:56:05 PM 49.9500 -63.6667 221° Southwest 440 506 43,000  Level Moncton Center
Mon 02:56:21 PM 49.9500 -63.7000 270° West 440 506 43,000  Level Gander Center
Mon 02:57:21 PM 49.8500 -63.8500 224° Southwest 440 506 43,000  Level Gander Center
Mon 02:58:05 PM 49.7833 -63.9333 219° Southwest 440 506 43,000  Level Moncton Center
Mon 02:58:21 PM 49.7667 -63.9667 232° Southwest 450 518 43,000  Level Gander Center
Mon 02:59:21 PM 49.6833 -64.1000 226° Southwest 440 506 43,000  Level Gander Center
Mon 03:00:05 PM 49.6000 -64.2167 222° Southwest 450 518 43,000  Level Moncton Center
Mon 03:01:05 PM 49.5167 -64.3500 226° Southwest 450 518 43,000  Level Moncton Center
Mon 03:02:05 PM 49.4167 -64.4667 217° Southwest 450 518 43,000  Level Moncton Center
Mon 03:02:21 PM 49.4000 -64.5167 243° Southwest 440 506 43,000  Level Gander Center
Mon 03:03:21 PM 49.3167 -64.6500 226° Southwest 450 518 43,000  Level Gander Center
Mon 03:04:21 PM 49.2167 -64.7667 217° Southwest 450 518 43,000  Level Gander Center
Mon 03:05:21 PM 49.1333 -64.8833 223° Southwest 440 506 43,000  Level Gander Center
Mon 03:06:05 PM 49.0667 -64.9833 225° Southwest 440 506 43,000  Level Moncton Center
Mon 03:07:05 PM 48.9667 -65.1167 221° Southwest 440 506 43,000  Level Moncton Center
Mon 03:08:05 PM 48.8833 -65.2333 223° Southwest 440 506 43,000  Level Moncton Center
Mon 03:09:05 PM 48.7833 -65.3833 225° Southwest 450 518 43,000  Level Moncton Center
Mon 03:10:05 PM 48.7000 -65.4833 218° Southwest 450 518 43,000  Level Moncton Center
Mon 03:11:05 PM 48.6167 -65.6167 227° Southwest 450 518 43,000  Level Moncton Center
Mon 03:12:05 PM 48.5167 -65.7667 225° Southwest 440 506 43,000  Level Moncton Center
Mon 03:13:05 PM 48.4333 -65.8833 223° Southwest 450 518 43,000  Level Moncton Center
Mon 03:14:05 PM 48.3167 -66.0167 217° Southwest 450 518 43,000  Level Moncton Center
Mon 03:15:05 PM 48.2333 -66.1333 223° Southwest 450 518 43,000  Level Moncton Center
Mon 03:16:05 PM 48.1500 -66.2500 223° Southwest 450 518 43,000  Level Moncton Center
Mon 03:17:05 PM 48.0500 -66.3833 222° Southwest 450 518 43,000  Level Moncton Center
Mon 03:18:05 PM 47.9667 -66.5167 227° Southwest 440 506 43,000  Level Moncton Center
Mon 03:19:05 PM 47.8833 -66.6167 219° Southwest 440 506 43,000  Level Moncton Center
Mon 03:25:08 PM 47.3190 -67.3760 219° Southwest 43,000  Level FlightAware ADS-B
Mon 03:27:43 PM 47.0820 -67.6950 223° Southwest 452 520 43,000  Level FlightAware ADS-B
Mon 03:28:39 PM 47.0510 -67.7450 228° Southwest 451 519 43,000  Level FlightAware ADS-B
Mon 03:29:24 PM 46.9480 -67.9070 227° Southwest 451 519 43,000  Level FlightAware ADS-B
Mon 03:30:05 PM 46.8820 -68.0090 227° Southwest 451 519 43,000  Level FlightAware ADS-B
Mon 03:30:26 PM 46.9820 -67.8540 47° Northeast 43,000  Level FlightAware ADS-B
Mon 03:30:56 PM 46.8060 -68.1290 227° Southwest 454 522 43,000  Level FlightAware ADS-B
Mon 03:31:43 PM 46.7380 -68.2340 227° Southwest 452 520 43,000  Level FlightAware ADS-B
Mon 03:32:25 PM 46.6780 -68.3260 226° Southwest 447 514 43,000  Level FlightAware ADS-B
Mon 03:33:04 PM 46.6230 -68.4130 227° Southwest 446 513 43,000  Level FlightAware ADS-B
Mon 03:34:28 PM 46.5040 -68.5950 227° Southwest 449 517 43,000  Level FlightAware ADS-B
Mon 03:35:10 PM 46.4480 -68.6800 226° Southwest 452 520 43,000  Level FlightAware ADS-B
Mon 03:35:53 PM 46.3800 -68.7830 226° Southwest 451 519 43,000  Level FlightAware ADS-B
Mon 03:36:38 PM 46.3150 -68.8820 226° Southwest 451 519 43,000  Level FlightAware ADS-B
Mon 03:37:18 PM 46.2580 -68.9680 226° Southwest 452 520 43,000  Level FlightAware ADS-B
Mon 03:37:58 PM 46.2000 -69.0550 226° Southwest 453 521 43,000  Level FlightAware ADS-B
Mon 03:38:43 PM 46.1350 -69.1530 226° Southwest 454 522 43,000  Level FlightAware ADS-B
Mon 03:39:23 PM 46.0770 -69.2400 226° Southwest 453 521 43,000  Level FlightAware ADS-B
Mon 03:40:08 PM 46.0130 -69.3360 226° Southwest 451 519 43,000  Level FlightAware ADS-B
Mon 03:40:48 PM 45.9550 -69.4220 226° Southwest 454 522 43,000  Level FlightAware ADS-B
Mon 03:41:29 PM 45.8970 -69.5070 226° Southwest 454 522 43,000  Level FlightAware ADS-B
Mon 03:42:13 PM 45.8310 -69.6040 226° Southwest 454 522 43,000  Level FlightAware ADS-B
Mon 03:42:53 PM 45.7730 -69.6890 226° Southwest 453 521 43,000  Level FlightAware ADS-B
Mon 03:43:38 PM 45.7070 -69.7860 226° Southwest 453 521 43,000  Level FlightAware ADS-B
Mon 03:44:18 PM 45.6480 -69.8720 226° Southwest 451 519 43,000  Level FlightAware ADS-B
Mon 03:44:48 PM 45.6050 -69.9360 226° Southwest 449 517 43,000  Level FlightAware ADS-B
Mon 03:45:28 PM 45.5470 -70.0200 225° Southwest 447 514 43,000  Level FlightAware ADS-B
Mon 03:46:08 PM 45.4900 -70.1030 226° Southwest 447 514 43,000  Level FlightAware ADS-B
Mon 03:46:53 PM 45.4250 -70.1970 225° Southwest 451 519 43,000  Level FlightAware ADS-B
Mon 03:47:50 PM 45.3430 -70.3140 225° Southwest 451 519 43,000  Level FlightAware ADS-B
Mon 03:48:28 PM 45.2850 -70.3960 225° Southwest 446 513 43,000  Level FlightAware ADS-B
Mon 03:49:13 PM 45.2210 -70.4890 226° Southwest 436 502 43,000  Level FlightAware ADS-B
Mon 03:49:58 PM 45.1570 -70.5790 225° Southwest 434 499 43,000  Level FlightAware ADS-B
Mon 03:50:33 PM 45.1070 -70.6500 225° Southwest 437 503 43,000  Level FlightAware ADS-B
Mon 03:51:18 PM 45.0440 -70.7410 226° Southwest 444 511 43,000  Level FlightAware ADS-B
Mon 03:51:58 PM 44.9860 -70.8220 225° Southwest 445 512 43,000  Level FlightAware ADS-B
Mon 03:52:33 PM 44.9350 -70.8940 225° Southwest 444 511 43,000  Level FlightAware ADS-B
Mon 03:53:18 PM 44.8700 -70.9850 225° Southwest 444 511 43,000  Level FlightAware ADS-B
Mon 03:53:58 PM 44.8120 -71.0660 225° Southwest 443 510 43,000  Level FlightAware ADS-B
Mon 03:54:40 PM 44.7550 -71.1450 225° Southwest 442 509 43,000  Level FlightAware ADS-B
Mon 03:55:23 PM 44.7040 -71.2160 225° Southwest 443 510 43,000  Level FlightAware ADS-B
Mon 03:56:02 PM 44.6310 -71.3170 225° Southwest 442 509 43,000  Level FlightAware ADS-B
Mon 03:56:41 PM 44.5780 -71.3890 224° Southwest 445 512 43,000  Level FlightAware ADS-B
Mon 03:57:26 PM 44.5110 -71.4820 225° Southwest 449 517 43,000  Level FlightAware ADS-B
Mon 03:58:06 PM 44.4500 -71.5660 225° Southwest 448 516 43,000  Level FlightAware ADS-B
Mon 03:58:48 PM 44.3940 -71.6620 231° Southwest 442 509 43,000  Level FlightAware ADS-B
Mon 03:59:34 PM 44.3510 -71.7770 242° Southwest 439 505 43,000  Level FlightAware ADS-B
Mon 04:00:16 PM 44.3120 -71.8840 243° Southwest 438 504 43,000  Level FlightAware ADS-B
Mon 04:00:56 PM 44.2760 -71.9820 243° Southwest 435 501 43,000  Level FlightAware ADS-B
Mon 04:01:36 PM 44.2390 -72.0820 243° Southwest 433 498 43,000  Level FlightAware ADS-B
Mon 04:02:18 PM 44.2000 -72.1860 242° Southwest 429 494 43,000  Level FlightAware ADS-B
Mon 04:02:52 PM 44.1690 -72.2680 242° Southwest 428 493 43,000  Level FlightAware ADS-B
Mon 04:03:28 PM 44.1360 -72.3560 242° Southwest 427 491 43,000  Level FlightAware ADS-B
Mon 04:04:08 PM 44.1000 -72.4520 242° Southwest 426 490 43,000  Level FlightAware ADS-B
Mon 04:04:53 PM 44.0590 -72.5610 242° Southwest 428 493 43,000  Level FlightAware ADS-B
Mon 04:05:34 PM 44.0210 -72.6620 242° Southwest 431 496 43,000  Level FlightAware ADS-B
Mon 04:06:18 PM 43.9790 -72.7700 242° Southwest 432 497 43,000  Level FlightAware ADS-B
Mon 04:07:01 PM 43.9400 -72.8740 243° Southwest 432 497 43,000 -148 Level FlightAware ADS-B
Mon 04:07:39 PM 43.9060 -72.9620 242° Southwest 433 498 42,800 -1,244 Descending FlightAware ADS-B
Mon 04:08:23 PM 43.8620 -73.0750 242° Southwest 433 498 41,300 -1,976 Descending FlightAware ADS-B
Mon 04:09:01 PM 43.8260 -73.1680 242° Southwest 434 499 40,100 -1,884 Descending FlightAware ADS-B
Mon 04:09:49 PM 43.7820 -73.2840 242° Southwest 418 481 38,600 -1,786 Descending FlightAware ADS-B
Mon 04:10:25 PM 43.7500 -73.3650 241° Southwest 409 471 37,600 -1,758 Descending FlightAware ADS-B
Mon 04:11:28 PM 43.6940 -73.5090 242° Southwest 411 473 35,700 -1,774 Descending FlightAware ADS-B
Mon 04:12:20 PM 43.6470 -73.6290 242° Southwest 401 461 34,200 -1,761 Descending FlightAware ADS-B
Mon 04:13:00 PM 43.6120 -73.7180 242° Southwest 401 461 33,000 -1,694 Descending FlightAware ADS-B
Mon 04:13:45 PM 43.5750 -73.8100 241° Southwest 392 451 31,800 -1,920 Descending FlightAware ADS-B
Mon 04:14:40 PM 43.5160 -73.9330 237° Southwest 406 467 29,800 -2,442 Descending FlightAware ADS-B
Mon 04:15:38 PM 43.4320 -74.0420 223° Southwest 423 487 27,200 -2,327 Descending FlightAware ADS-B
Mon 04:16:18 PM 43.3750 -74.1140 223° Southwest 428 493 26,000 -857 Descending FlightAware ADS-B
Mon 04:17:02 PM 43.3090 -74.1970 222° Southwest 432 497 26,000  Level FlightAware ADS-B
Mon 04:17:44 PM 43.2480 -74.2740 223° Southwest 429 494 26,000  Level FlightAware ADS-B
Mon 04:18:24 PM 43.1900 -74.3480 223° Southwest 426 490 26,000 -951 Level FlightAware ADS-B
Mon 04:19:06 PM 43.1300 -74.4220 222° Southwest 423 487 24,700 -1,429 Descending FlightAware ADS-B
Mon 04:19:48 PM 43.0700 -74.4970 222° Southwest 423 487 24,000 -1,116 Descending FlightAware ADS-B
Mon 04:20:32 PM 43.0050 -74.5790 223° Southwest 415 478 23,100 -1,412 Descending FlightAware ADS-B
Mon 04:21:13 PM 42.9490 -74.6480 222° Southwest 403 464 22,000 -786 Descending FlightAware ADS-B
Mon 04:21:56 PM 42.8890 -74.7220 222° Southwest 405 466 22,000  Level FlightAware ADS-B
Mon 04:22:38 PM 42.8300 -74.7950 222° Southwest 409 471 22,000  Level FlightAware ADS-B
Mon 04:23:18 PM 42.7760 -74.8620 222° Southwest 411 473 22,000  Level FlightAware ADS-B
Mon 04:24:02 PM 42.7110 -74.9410 222° Southwest 413 475 22,000  Level FlightAware ADS-B
Mon 04:24:40 PM 42.6580 -75.0060 222° Southwest 414 476 22,000  Level FlightAware ADS-B
Mon 04:25:10 PM 42.6150 -75.0590 222° Southwest 412 474 22,000  Level FlightAware ADS-B
Mon 04:25:54 PM 42.5500 -75.1320 220° Southwest 419 482 22,000  Level FlightAware ADS-B
Mon 04:26:30 PM 42.4860 -75.1630 200° South 436 502 22,000 -462 Level FlightAware ADS-B
Mon 04:27:12 PM 42.4000 -75.1560 177° South 456 525 21,400 -472 Descending FlightAware ADS-B
Mon 04:27:59 PM 42.3220 -75.1240 163° South 457 526 21,300 -72 Descending FlightAware ADS-B
Mon 04:28:35 PM 42.2600 -75.0980 163° South 457 526 21,300  Level FlightAware ADS-B
Mon 04:29:25 PM 42.1740 -75.0630 163° South 457 526 21,300  Level FlightAware ADS-B
Mon 04:30:02 PM 42.1110 -75.0360 162° South 457 526 21,300  Level FlightAware ADS-B
Mon 04:30:49 PM 42.0300 -75.0030 163° South 457 526 21,300 -3,267 Level FlightAware ADS-B
Mon 04:31:43 PM 42.0492 -74.6628 163° South 391 450 15,800 -3,316 Descending Boston Center
Mon 04:32:43 PM 42.0075 -74.5525 117° Southeast 368 423 15,000 -400 Descending Boston Center
Mon 04:33:43 PM 41.9558 -74.4278 119° Southeast 355 409 15,000  Level Boston Center
Mon 04:35:00 PM 41.8738 -74.2381 120° Southeast  Level FlightAware Approximate
Mon 04:42:00 PM 41.2037 -73.6704 143° Southeast  Level FlightAware Approximate
Mon 04:43:00 PM 41.0989 -73.5878 252° West  Level FlightAware Approximate
Mon 04:44:00 PM 41.0667 -73.7000 246° West  Level FlightAware Approximate
Mon 04:45:00 PM 41.0669 -73.7076 246° West  Level Estimated
Mon 04:46:00 PM 41.0667 -73.7000 246° West  Level FlightAware Approximate
Mon 04:47:00 PM 41.0669 -73.7076 246° West  Level Estimated
Mon 04:48:00 PM 41.0667 -73.7000 246° West  Level FlightAware Approximate
Mon 04:49:00 PM 41.0669 -73.7076 246° West  Level Estimated
Mon 04:50:00 PM 41.0667 -73.7000 246° West  Level FlightAware Approximate
Mon 04:51:00 PM 41.0669 -73.7076 246° West  Level Estimated
Mon 04:52:00 PM 41.0667 -73.7000 246° West  Level FlightAware Approximate
Mon 04:53:00 PM 41.0669 -73.7076 246° West  Level Estimated
Mon 04:54:00 PM 41.0667 -73.7000 246° West  Level FlightAware Approximate
Mon 04:55:00 PM 41.0669 -73.7076 246° West  Level Estimated
Mon 04:56:00 PM 41.0667 -73.7000 246° West  Level FlightAware Approximate
Mon 04:57:00 PM 41.0669 -73.7076 246° West  Level Estimated
Mon 04:58:00 PM 41.0667 -73.7000 246° West  Level FlightAware Approximate
Mon 04:59:00 PM 41.0669 -73.7076 246° West  Level Estimated
Mon 05:00:00 PM 41.0667 -73.7000 246° West  Level FlightAware Approximate
Mon 05:01:00 PM 41.0669 -73.7076 246° West  Level Estimated
Mon 05:02:00 PM 41.0667 -73.7000 246° West  Level FlightAware Approximate
Mon 05:03:00 PM 41.0669 -73.7076 246° West  Level Estimated
Mon 05:04:00 PM 41.0667 -73.7000 246° West  Level FlightAware Approximate
Mon 05:05:00 PM 41.0669 -73.7076 246° West  Level Estimated
Mon 05:06:00 PM 41.0667 -73.7000 246° West  Level FlightAware Approximate

Login

Don't have an account? Register now (free) for customized features, flight alerts, and more!